• Join FlightAware (Why Join?)
  • Login
  • US Flag 
01:17PM EDT


 

Airport Tracker/Info


-or-


 

Live Flight TrackerFlight Track Log ✈ PKW653 ✈ 10-Dec-2013 ✈ KTUL - KELP

Flight Track Log - Related Links

Times and Time Zones

All times are in EST time to prevent confusion due to time zone crossing. See the PKW653 flight status page for this flight to view local times or setup timezone preferences in your user account.

Time Position Orientation Groundspeed Altitude Reporting Facility
EST Latitude Longitude Course Direction KTS MPH feet Rate Location/Type
02:35AM 36.2222 -95.8831 358° North 143 165 2,300  Level Kansas City Center
02:36AM 36.2278 -95.9264 279° West 162 186 4,100 1,740 Climbing Kansas City Center
02:36AM 36.2283 -95.9286 287° West 155 178 4,200 1,740 Climbing Kansas City Center
02:37AM 36.2117 -95.9828 249° West 168 193 5,900 1,680 Climbing Kansas City Center
02:37AM 36.2122 -95.9819 50° Northeast 162 186 5,900 1,680 Level Kansas City Center
02:38AM 36.2017 -96.0386 257° West 167 192 7,600 1,680 Climbing Kansas City Center
02:38AM 36.2028 -96.0386 360° North 165 190 7,600 1,140 Level Kansas City Center
02:39AM 36.1944 -96.0939 259° West 163 188 8,900 1,260 Climbing Kansas City Center
02:40AM 36.1808 -96.1497 253° West 168 193 10,200 1,560 Climbing Kansas City Center
02:41AM 36.1722 -96.2064 259° West 167 192 12,100 1,860 Climbing Kansas City Center
02:42AM 36.1603 -96.2625 255° West 167 192 14,000 1,740 Climbing Kansas City Center
02:43AM 36.1519 -96.3208 260° West 170 196 15,700 1,140 Climbing Kansas City Center
02:44AM 36.1364 -96.3850 253° West 187 215 16,300 180 Climbing Kansas City Center
02:45AM 36.1222 -96.4633 257° West 220 253 16,100 -120 Descending Kansas City Center
02:46AM 36.1064 -96.5481 257° West 245 282 16,100  Level Kansas City Center
02:47AM 36.0875 -96.6347 255° West 256 295 16,100  Level Kansas City Center
02:48AM 36.0658 -96.7211 253° West 262 302 16,100 -60 Level Kansas City Center
02:49AM 36.0289 -96.8100 243° Southwest 269 310 16,000 -120 Descending Kansas City Center
02:50AM 35.9981 -96.8936 246° West 269 310 15,900  Descending Kansas City Center
02:51AM 35.9661 -96.9753 244° Southwest 267 307 16,000  Climbing Kansas City Center
02:52AM 35.9364 -97.0592 246° West 267 307 16,000 -60 Level Kansas City Center
02:53AM 35.9031 -97.1408 243° Southwest 267 307 15,900  Descending Kansas City Center
02:54AM 35.8706 -97.2219 244° Southwest 267 307 16,000  Climbing Kansas City Center
02:55AM 35.8400 -97.3047 246° West 267 307 16,000  Level Kansas City Center
02:56AM 35.8078 -97.3856 244° Southwest 266 306 16,000  Level Kansas City Center
02:57AM 35.7761 -97.4686 245° Southwest 267 307 16,000  Level Kansas City Center
02:58AM 35.7433 -97.5497 244° Southwest 268 308 16,000  Level Kansas City Center
02:59AM 35.7119 -97.6319 245° Southwest 268 308 16,000  Level Kansas City Center
03:00AM 35.6803 -97.7139 245° Southwest 268 308 16,100  Climbing Kansas City Center
03:01AM 35.6519 -97.7978 247° West 268 308 16,100  Level Kansas City Center
03:02AM 35.6106 -97.8947 242° Southwest 268 308 16,100 -60 Level Fort Worth Center
03:03AM 35.5778 -97.9775 244° Southwest 271 312 16,000 -60 Descending Fort Worth Center
03:04AM 35.5450 -98.0586 244° Southwest 267 307 16,000  Level Fort Worth Center
03:05AM 35.5097 -98.1383 241° Southwest 266 306 16,000  Level Fort Worth Center
03:06AM 35.4775 -98.2203 244° Southwest 267 307 16,000  Level Fort Worth Center
03:07AM 35.4428 -98.3003 242° Southwest 266 306 16,100  Climbing Fort Worth Center
03:08AM 35.4119 -98.3833 246° West 269 310 16,100  Level Fort Worth Center
03:09AM 35.3831 -98.4661 247° West 264 304 16,100  Level Fort Worth Center
03:10AM 35.3503 -98.5453 243° Southwest 264 304 16,100  Level Fort Worth Center
03:11AM 35.3181 -98.6250 244° Southwest 261 300 16,100 -60 Level Fort Worth Center
03:12AM 35.2833 -98.7094 243° Southwest 266 306 16,000 -60 Descending Fort Worth Center
03:13AM 35.2486 -98.7939 243° Southwest 274 315 16,000  Level Fort Worth Center
03:14AM 35.2147 -98.8758 243° Southwest 269 310 16,000  Level Fort Worth Center
03:15AM 35.1825 -98.9594 245° Southwest 269 310 16,000  Level Fort Worth Center
03:16AM 35.1494 -99.0411 244° Southwest 268 308 16,000  Level Fort Worth Center
03:17AM 35.1136 -99.1236 242° Southwest 271 312 16,100  Climbing Fort Worth Center
03:18AM 35.0806 -99.2067 244° Southwest 271 312 16,100 -60 Level Fort Worth Center
03:19AM 35.0472 -99.2900 244° Southwest 271 312 16,000 -60 Descending Fort Worth Center
03:20AM 35.0144 -99.3731 244° Southwest 270 311 16,000  Level Fort Worth Center
03:21AM 34.9794 -99.4561 243° Southwest 273 314 16,000  Level Fort Worth Center
03:22AM 34.9439 -99.5364 242° Southwest 269 310 16,000 -60 Level Fort Worth Center
03:23AM 34.9128 -99.6211 246° West 271 312 15,900  Descending Fort Worth Center
03:24AM 34.8764 -99.7028 242° Southwest 272 313 16,100 120 Climbing Fort Worth Center
03:25AM 34.8483 -99.7667 243° Southwest 268 308 16,200  Climbing Fort Worth Center
03:26AM 34.8157 -99.8292 240° Southwest  Level FlightAware Approximate
03:26AM 34.8128 -99.8483 242° Southwest 271 312 16,200  Level Fort Worth Center
03:27AM 34.7794 -99.9314 244° Southwest 271 312 16,200 -60 Level Fort Worth Center
03:28AM 34.7428 -100.0111 241° Southwest 269 310 16,100 -60 Descending Fort Worth Center
03:29AM 34.7097 -100.0928 244° Southwest 268 308 16,100 -120 Level Fort Worth Center
03:30AM 34.6742 -100.1758 243° Southwest 273 314 15,900 -60 Descending Fort Worth Center
03:31AM 34.6386 -100.2600 243° Southwest 278 320 16,000  Climbing Fort Worth Center
03:32AM 34.6089 -100.3453 247° West 273 314 15,900  Descending Fort Worth Center
03:33AM 34.5609 -100.4193 243° Southwest  Level FlightAware Approximate
03:33AM 34.5681 -100.4283 239° Southwest 282 325 16,100  Level Fort Worth Center
03:34AM 34.5247 -100.5038 243° Southwest  Level FlightAware Approximate
03:34AM 34.5292 -100.5089 240° Southwest 276 318 16,200  Level Fort Worth Center
03:36AM 34.4694 -100.6386 241° Southwest  Level FlightAware Approximate
03:38AM 34.3969 -100.8347 242° Southwest 272 313 16,200  Level Fort Worth Center
03:39AM 34.3614 -100.9142 242° Southwest 269 310 16,100 -120 Descending Fort Worth Center
03:40AM 34.3333 -100.9731 240° Southwest 268 308 16,100 60 Level Fort Worth Center
03:40AM 34.3231 -100.9936 239° Southwest 272 313 16,200  Climbing Fort Worth Center
03:41AM 34.2964 -101.0506 240° Southwest 263 303 16,100 -120 Descending Fort Worth Center
03:41AM 34.2858 -101.0831 249° West 268 308 16,100  Level Fort Worth Center
03:42AM 34.2642 -101.1317 242° Southwest 262 302 16,100  Level Fort Worth Center
03:42AM 34.2528 -101.1619 246° West 265 305 16,100  Level Fort Worth Center
03:43AM 34.2034 -101.2509 242° Southwest  Level FlightAware Approximate
03:43AM 34.2317 -101.2103 242° Southwest 264 304 16,100  Level Fort Worth Center
03:43AM 34.2208 -101.2408 247° West 262 302 16,100 60 Level Fort Worth Center
03:44AM 34.1978 -101.2944 243° Southwest 263 303 16,200  Climbing Fort Worth Center
03:44AM 34.1872 -101.3189 242° Southwest 262 302 16,100 -120 Descending Fort Worth Center
03:45AM 34.1628 -101.3736 242° Southwest 265 305 16,100 60 Level Fort Worth Center
03:45AM 34.1517 -101.3969 240° Southwest 265 305 16,200  Climbing Fort Worth Center
03:46AM 34.1256 -101.4506 240° Southwest 265 305 16,100 -120 Descending Fort Worth Center
03:46AM 34.1133 -101.4803 244° Southwest 265 305 16,100  Level Fort Worth Center
03:47AM 34.0925 -101.5264 241° Southwest 263 303 16,100  Level Fort Worth Center
03:47AM 34.0811 -101.5592 247° West 263 303 16,100  Level Fort Worth Center
03:48AM 34.0597 -101.6050 241° Southwest 260 299 16,100 -120 Level Fort Worth Center
03:48AM 34.0464 -101.6347 242° Southwest 261 300 16,000  Descending Fort Worth Center
03:49AM 34.0244 -101.6811 240° Southwest 263 303 16,100 60 Climbing Fort Worth Center
03:49AM 34.0122 -101.7119 244° Southwest 261 300 16,100  Level Fort Worth Center
03:50AM 33.9894 -101.7600 240° Southwest 264 304 16,100  Level Fort Worth Center
03:50AM 33.9769 -101.7897 243° Southwest 264 304 16,100 60 Level Fort Worth Center
03:51AM 33.9550 -101.8436 244° Southwest 261 300 16,200  Climbing Fort Worth Center
03:51AM 33.9433 -101.8661 238° Southwest 261 300 16,100 -120 Descending Fort Worth Center
03:52AM 33.9175 -101.9200 240° Southwest 266 306 16,100  Level Fort Worth Center
03:52AM 33.9075 -101.9433 243° Southwest 264 304 16,100 60 Level Fort Worth Center
03:53AM 33.8842 -101.9958 242° Southwest 264 304 16,200 -120 Climbing Fort Worth Center
03:53AM 33.8722 -102.0194 239° Southwest 261 300 16,000 -120 Descending Fort Worth Center
03:54AM 33.8378 -102.0967 242° Southwest 263 303 16,100  Climbing Fort Worth Center
03:55AM 33.8044 -102.1758 243° Southwest 266 306 16,100  Level Fort Worth Center
03:56AM 33.7717 -102.2542 243° Southwest 264 304 16,100 -60 Level Fort Worth Center
03:57AM 33.7361 -102.3319 241° Southwest 266 306 16,000  Descending Fort Worth Center
03:58AM 33.6961 -102.4158 240° Southwest 268 308 16,100  Climbing Fort Worth Center
03:59AM 33.6600 -102.4939 241° Southwest 267 307 16,100  Level Fort Worth Center
04:00AM 33.6272 -102.5733 244° Southwest 266 306 16,100  Level Fort Worth Center
04:01AM 33.5933 -102.6525 243° Southwest 268 308 16,100  Level Fort Worth Center
04:02AM 33.5564 -102.7303 240° Southwest 270 311 16,100  Level Fort Worth Center
04:03AM 33.5206 -102.8067 241° Southwest 266 306 16,100  Level Fort Worth Center
04:04AM 33.4839 -102.8817 240° Southwest 264 304 16,100 -60 Level Fort Worth Center
04:05AM 33.4528 -102.9528 242° Southwest 266 306 16,000  Descending Fort Worth Center
04:06AM 33.4200 -103.0294 243° Southwest 261 300 16,100  Climbing Fort Worth Center
04:07AM 33.3833 -103.1028 239° Southwest 260 299 16,000  Descending Fort Worth Center
04:08AM 33.3494 -103.1767 241° Southwest 257 296 16,100  Climbing Fort Worth Center
04:09AM 33.3178 -103.2514 243° Southwest 254 292 16,100  Level Fort Worth Center
04:10AM 33.2817 -103.3253 240° Southwest 257 296 16,100  Level Fort Worth Center
04:11AM 33.2489 -103.3981 242° Southwest 253 291 16,200  Climbing Fort Worth Center
04:12AM 33.2144 -103.4719 241° Southwest 253 291 16,200 -60 Level Fort Worth Center
04:13AM 33.1800 -103.5433 240° Southwest 253 291 16,100  Descending Fort Worth Center
04:14AM 33.1450 -103.6156 240° Southwest 253 291 16,200  Climbing Fort Worth Center
04:15AM 33.1128 -103.6875 242° Southwest 251 289 16,100 -60 Descending Fort Worth Center
04:16AM 33.0811 -103.7611 243° Southwest 251 289 16,100  Level Fort Worth Center
04:17AM 33.0469 -103.8303 240° Southwest 248 285 16,200  Climbing Fort Worth Center
04:18AM 33.0131 -103.9017 241° Southwest 248 285 16,100 -60 Descending Fort Worth Center
04:19AM 32.9728 -103.9886 241° Southwest 249 287 16,100  Level Fort Worth Center
04:20AM 32.9378 -104.0592 239° Southwest 249 287 16,200  Climbing Fort Worth Center
04:21AM 32.9042 -104.1308 241° Southwest 250 288 16,200 -60 Level Fort Worth Center
04:22AM 32.8697 -104.2028 240° Southwest 250 288 16,100  Descending Fort Worth Center
04:23AM 32.8344 -104.2756 240° Southwest 252 290 16,200  Climbing Fort Worth Center
04:24AM 32.8000 -104.3464 240° Southwest 251 289 16,200 -60 Level Fort Worth Center
04:25AM 32.7681 -104.4197 243° Southwest 252 290 16,100 -60 Descending Fort Worth Center
04:26AM 32.7372 -104.4892 242° Southwest 247 284 16,100  Level Fort Worth Center
04:27AM 32.7011 -104.5631 240° Southwest 251 289 16,200  Climbing Fort Worth Center
04:28AM 32.6644 -104.6331 238° Southwest 251 289 16,100 -60 Descending Fort Worth Center
04:29AM 32.6314 -104.7078 242° Southwest 254 292 16,100  Level Fort Worth Center
04:30AM 32.6014 -104.7717 241° Southwest 254 292 16,100  Level Fort Worth Center
04:32AM 32.5408 -104.8789 236° Southwest 254 292 16,100  Level Albuquerque Center
04:33AM 32.4997 -104.9483 235° Southwest 257 296 16,100  Level Albuquerque Center
04:34AM 32.4650 -105.0111 237° Southwest 261 300 16,100  Level Albuquerque Center
04:35AM 32.4247 -105.0792 235° Southwest 257 296 16,100  Level Albuquerque Center
04:36AM 32.3844 -105.1475 235° Southwest 253 291 16,100  Level Albuquerque Center
04:37AM 32.3428 -105.2131 233° Southwest 251 289 16,100  Level Albuquerque Center
04:38AM 32.3019 -105.2800 234° Southwest 251 289 16,100 -120 Level Albuquerque Center
04:38AM 32.2731 -105.3222 231° Southwest 253 291 16,000  Descending Albuquerque Center
04:39AM 32.2622 -105.3486 244° Southwest 253 291 16,100 -120 Climbing Albuquerque Center
04:39AM 32.2325 -105.3906 230° Southwest 253 291 15,900 -540 Descending Albuquerque Center
04:40AM 32.2228 -105.4172 247° West 254 292 15,600 -900 Descending Albuquerque Center
04:40AM 32.1908 -105.4644 231° Southwest 268 308 15,000 -720 Descending Albuquerque Center
04:41AM 32.1783 -105.4906 241° Southwest 268 308 14,900 -840 Descending Albuquerque Center
04:41AM 32.1450 -105.5392 231° Southwest 281 323 14,200 -900 Descending Albuquerque Center
04:42AM 32.1314 -105.5639 237° Southwest 280 322 14,000 -900 Descending Albuquerque Center
04:42AM 32.0986 -105.6114 231° Southwest 283 326 13,300 -1,020 Descending Albuquerque Center
04:43AM 32.0847 -105.6372 238° Southwest 280 322 13,000 -840 Descending Albuquerque Center
04:43AM 32.0528 -105.6858 232° Southwest 275 316 12,500 -840 Descending Albuquerque Center
04:44AM 32.0408 -105.7092 239° Southwest 274 315 12,200 -900 Descending Albuquerque Center
04:44AM 32.0047 -105.7608 231° Southwest 272 313 11,600 -840 Descending Albuquerque Center
04:45AM 31.9947 -105.7797 238° Southwest 273 314 11,400 -720 Descending Albuquerque Center
04:45AM 31.9608 -105.8347 234° Southwest 271 312 10,900 -720 Descending Albuquerque Center
04:46AM 31.9533 -105.8533 245° Southwest 270 311 10,700 -720 Descending Albuquerque Center
04:46AM 31.9258 -105.9114 241° Southwest 268 308 10,200 -720 Descending Albuquerque Center
04:47AM 31.9206 -105.9467 260° West 266 306 10,000 -300 Descending Albuquerque Center
04:47AM 31.9089 -105.9933 254° West 254 292 9,900  Descending Albuquerque Center
04:48AM 31.9006 -106.0256 253° West 255 293 10,000  Climbing Albuquerque Center
04:48AM 31.8794 -106.0658 238° Southwest 247 284 9,900 -420 Descending Albuquerque Center
04:49AM 31.8719 -106.0828 242° Southwest 246 283 9,600 -1,320 Descending Albuquerque Center
04:49AM 31.8428 -106.1328 236° Southwest 239 275 8,600 -1,800 Descending Albuquerque Center
04:50AM 31.8281 -106.1586 236° Southwest 234 269 7,800 -1,440 Descending Albuquerque Center
04:50AM 31.8106 -106.1908 237° Southwest 212 244 7,200 -840 Descending Albuquerque Center
04:51AM 31.8006 -106.2147 244° Southwest 205 236 7,000 -1,020 Descending Albuquerque Center
04:51AM 31.7953 -106.2472 259° West 171 197 6,200 -1,200 Descending Albuquerque Center
04:52AM 31.7953 -106.2692 270° West 171 197 5,800 -1,020 Descending Albuquerque Center
04:52AM 31.7958 -106.2969 271° West 143 165 5,200 -1,020 Descending Albuquerque Center
04:53AM 31.7983 -106.3169 278° West 151 174 4,800 -900 Descending Albuquerque Center
04:53AM 31.8000 -106.3433 274° West 142 163 4,300 -840 Descending Albuquerque Center
04:54AM 31.8011 -106.3606 274° West 140 161 4,000 -840 Descending Albuquerque Center